Terminal Aerodrome Forecast
Issued by NWS

Home | Current Version | Previous Version | Text Only | Print | Product List | Glossary On
Versions: 1 2 3 4 5 6 7 8 9 10 11 12 13 14 15 16
774
FTUS42 KFFC 271142
TAFPDK
TAF
KPDK 271142Z 2712/2812 12004KT P6SM BKN120
     FM271800 14007KT P6SM VCSH BKN045
      TEMPO 2720/2724 5SM SHRA BKN035
     FM280300 11004KT P6SM BKN035
     FM280600 11003KT 5SM BR BKN020
     FM280900 12003KT 4SM BR SCT009 BKN012 PROB30 2810/2812 3SM -RA
      BR BKN008=

USA.gov is the U.S. government's official web portal to all federal, state and local government web resources and services.